sensor_id;sensor_type;location;lat;lon;timestamp;pressure;altitude;pressure_sealevel;temperature;humidity
57801;BME280;43627;42.728;23.256;2023-04-04T00:00:28;93578.31;;;6.52;100.00
57801;BME280;43627;42.728;23.256;2023-04-04T00:02:55;93587.56;;;6.60;100.00
57801;BME280;43627;42.728;23.256;2023-04-04T00:05:22;93584.94;;;6.66;100.00
57801;BME280;43627;42.728;23.256;2023-04-04T00:07:50;93584.75;;;6.69;100.00
57801;BME280;43627;42.728;23.256;2023-04-04T00:10:17;93572.09;;;6.81;100.00
57801;BME280;43627;42.728;23.256;2023-04-04T00:12:43;93582.41;;;6.77;100.00
57801;BME280;43627;42.728;23.256;2023-04-04T00:15:11;93562.91;;;6.58;100.00
57801;BME280;43627;42.728;23.256;2023-04-04T00:17:37;93567.00;;;6.68;100.00
57801;BME280;43627;42.728;23.256;2023-04-04T00:20:05;93571.22;;;6.69;100.00
57801;BME280;43627;42.728;23.256;2023-04-04T00:22:32;93580.75;;;6.65;100.00
57801;BME280;43627;42.728;23.256;2023-04-04T00:24:58;93554.69;;;6.52;100.00
57801;BME280;43627;42.728;23.256;2023-04-04T00:27:25;93566.66;;;6.61;100.00
57801;BME280;43627;42.728;23.256;2023-04-04T00:29:52;93565.91;;;6.60;100.00
57801;BME280;43627;42.728;23.256;2023-04-04T00:32:19;93557.41;;;6.52;100.00
57801;BME280;43627;42.728;23.256;2023-04-04T00:34:51;93564.94;;;6.63;100.00
57801;BME280;43627;42.728;23.256;2023-04-04T00:37:18;93559.34;;;6.67;100.00
57801;BME280;43627;42.728;23.256;2023-04-04T00:39:44;93554.41;;;6.65;100.00
57801;BME280;43627;42.728;23.256;2023-04-04T00:42:11;93555.00;;;6.54;100.00
57801;BME280;43627;42.728;23.256;2023-04-04T00:44:38;93555.63;;;6.64;100.00
57801;BME280;43627;42.728;23.256;2023-04-04T00:47:05;93552.34;;;6.75;100.00
57801;BME280;43627;42.728;23.256;2023-04-04T00:49:49;93548.41;;;6.76;100.00
57801;BME280;43627;42.728;23.256;2023-04-04T00:52:16;93542.25;;;6.75;100.00
57801;BME280;43627;42.728;23.256;2023-04-04T00:54:43;93526.25;;;6.77;100.00
57801;BME280;43627;42.728;23.256;2023-04-04T00:57:09;93533.53;;;6.86;100.00
57801;BME280;43627;42.728;23.256;2023-04-04T00:59:36;93527.63;;;6.87;100.00
57801;BME280;43627;42.728;23.256;2023-04-04T01:02:04;93530.97;;;6.97;100.00
57801;BME280;43627;42.728;23.256;2023-04-04T01:04:31;93540.53;;;6.93;100.00
57801;BME280;43627;42.728;23.256;2023-04-04T01:06:58;93533.66;;;6.97;100.00
57801;BME280;43627;42.728;23.256;2023-04-04T01:09:26;93550.06;;;7.08;100.00
57801;BME280;43627;42.728;23.256;2023-04-04T01:11:54;93547.19;;;7.12;100.00
57801;BME280;43627;42.728;23.256;2023-04-04T01:14:22;93549.75;;;7.21;100.00
57801;BME280;43627;42.728;23.256;2023-04-04T01:16:50;93551.84;;;7.11;100.00
57801;BME280;43627;42.728;23.256;2023-04-04T01:19:45;93555.84;;;7.16;100.00
57801;BME280;43627;42.728;23.256;2023-04-04T01:22:14;93558.91;;;7.24;100.00
57801;BME280;43627;42.728;23.256;2023-04-04T01:24:42;93550.97;;;7.20;100.00
57801;BME280;43627;42.728;23.256;2023-04-04T01:27:10;93547.78;;;7.22;100.00
57801;BME280;43627;42.728;23.256;2023-04-04T01:29:37;93557.81;;;7.36;100.00
57801;BME280;43627;42.728;23.256;2023-04-04T01:32:11;93561.28;;;7.36;100.00
57801;BME280;43627;42.728;23.256;2023-04-04T01:34:53;93552.75;;;7.23;100.00
57801;BME280;43627;42.728;23.256;2023-04-04T01:39:53;93532.66;;;7.15;100.00
57801;BME280;43627;42.728;23.256;2023-04-04T01:42:22;93534.75;;;7.26;100.00
57801;BME280;43627;42.728;23.256;2023-04-04T01:44:54;93527.66;;;7.28;100.00
57801;BME280;43627;42.728;23.256;2023-04-04T01:47:22;93532.00;;;7.40;100.00
57801;BME280;43627;42.728;23.256;2023-04-04T01:49:49;93523.66;;;7.44;100.00
57801;BME280;43627;42.728;23.256;2023-04-04T01:52:15;93528.59;;;7.45;100.00
57801;BME280;43627;42.728;23.256;2023-04-04T01:54:42;93520.94;;;7.44;100.00
57801;BME280;43627;42.728;23.256;2023-04-04T01:57:09;93524.13;;;7.42;100.00
57801;BME280;43627;42.728;23.256;2023-04-04T01:59:35;93508.97;;;7.30;100.00
57801;BME280;43627;42.728;23.256;2023-04-04T02:02:02;93485.78;;;7.09;100.00
57801;BME280;43627;42.728;23.256;2023-04-04T02:04:28;93499.06;;;7.07;100.00
57801;BME280;43627;42.728;23.256;2023-04-04T02:06:55;93507.13;;;7.01;100.00
57801;BME280;43627;42.728;23.256;2023-04-04T02:09:22;93502.50;;;7.07;100.00
57801;BME280;43627;42.728;23.256;2023-04-04T02:11:49;93514.22;;;7.19;100.00
57801;BME280;43627;42.728;23.256;2023-04-04T02:14:16;93512.47;;;7.16;100.00
57801;BME280;43627;42.728;23.256;2023-04-04T02:16:42;93510.47;;;7.11;100.00
57801;BME280;43627;42.728;23.256;2023-04-04T02:19:09;93506.72;;;7.08;100.00
57801;BME280;43627;42.728;23.256;2023-04-04T02:21:36;93500.94;;;7.01;100.00
57801;BME280;43627;42.728;23.256;2023-04-04T02:24:03;93501.38;;;6.94;100.00
57801;BME280;43627;42.728;23.256;2023-04-04T02:26:29;93493.63;;;6.86;100.00
57801;BME280;43627;42.728;23.256;2023-04-04T02:28:56;93487.13;;;6.78;100.00
57801;BME280;43627;42.728;23.256;2023-04-04T02:31:23;93489.81;;;6.78;100.00
57801;BME280;43627;42.728;23.256;2023-04-04T02:33:50;93484.63;;;6.75;100.00
57801;BME280;43627;42.728;23.256;2023-04-04T02:36:16;93500.00;;;6.83;100.00
57801;BME280;43627;42.728;23.256;2023-04-04T02:38:43;93498.03;;;6.84;100.00
57801;BME280;43627;42.728;23.256;2023-04-04T02:41:10;93490.56;;;6.79;100.00
57801;BME280;43627;42.728;23.256;2023-04-04T02:43:36;93497.22;;;6.78;100.00
57801;BME280;43627;42.728;23.256;2023-04-04T02:46:03;93507.44;;;6.88;100.00
57801;BME280;43627;42.728;23.256;2023-04-04T02:48:44;93512.47;;;6.96;100.00
57801;BME280;43627;42.728;23.256;2023-04-04T02:51:10;93496.75;;;7.00;100.00
57801;BME280;43627;42.728;23.256;2023-04-04T02:53:37;93507.41;;;7.03;100.00
57801;BME280;43627;42.728;23.256;2023-04-04T02:56:04;93507.75;;;7.11;100.00
57801;BME280;43627;42.728;23.256;2023-04-04T02:58:31;93513.44;;;7.13;100.00
57801;BME280;43627;42.728;23.256;2023-04-04T03:00:58;93506.19;;;7.04;100.00
57801;BME280;43627;42.728;23.256;2023-04-04T03:03:25;93528.72;;;7.16;100.00
57801;BME280;43627;42.728;23.256;2023-04-04T03:05:52;93527.25;;;7.15;100.00
57801;BME280;43627;42.728;23.256;2023-04-04T03:08:19;93525.53;;;7.18;100.00
57801;BME280;43627;42.728;23.256;2023-04-04T03:10:46;93518.72;;;7.22;100.00
57801;BME280;43627;42.728;23.256;2023-04-04T03:13:13;93526.28;;;7.18;100.00
57801;BME280;43627;42.728;23.256;2023-04-04T03:15:40;93521.22;;;7.26;100.00
57801;BME280;43627;42.728;23.256;2023-04-04T03:18:07;93524.06;;;7.37;100.00
57801;BME280;43627;42.728;23.256;2023-04-04T03:20:33;93529.88;;;7.50;100.00
57801;BME280;43627;42.728;23.256;2023-04-04T03:23:01;93521.47;;;7.48;100.00
57801;BME280;43627;42.728;23.256;2023-04-04T03:25:28;93510.41;;;7.52;100.00
57801;BME280;43627;42.728;23.256;2023-04-04T03:27:55;93503.09;;;7.37;100.00
57801;BME280;43627;42.728;23.256;2023-04-04T03:30:22;93520.44;;;7.45;100.00
57801;BME280;43627;42.728;23.256;2023-04-04T03:32:48;93526.44;;;7.50;100.00
57801;BME280;43627;42.728;23.256;2023-04-04T03:35:16;93520.03;;;7.53;100.00
57801;BME280;43627;42.728;23.256;2023-04-04T03:37:43;93503.69;;;7.47;100.00
57801;BME280;43627;42.728;23.256;2023-04-04T03:40:10;93511.53;;;7.39;100.00
57801;BME280;43627;42.728;23.256;2023-04-04T03:42:36;93521.81;;;7.35;100.00
57801;BME280;43627;42.728;23.256;2023-04-04T03:45:03;93513.06;;;7.26;100.00
57801;BME280;43627;42.728;23.256;2023-04-04T03:47:30;93517.63;;;7.34;100.00
57801;BME280;43627;42.728;23.256;2023-04-04T03:49:57;93509.28;;;7.38;100.00
57801;BME280;43627;42.728;23.256;2023-04-04T03:52:23;93526.28;;;7.38;100.00
57801;BME280;43627;42.728;23.256;2023-04-04T03:54:50;93526.03;;;7.36;100.00
57801;BME280;43627;42.728;23.256;2023-04-04T03:57:17;93526.03;;;7.36;100.00
57801;BME280;43627;42.728;23.256;2023-04-04T03:59:44;93525.50;;;7.32;100.00
57801;BME280;43627;42.728;23.256;2023-04-04T04:02:10;93523.72;;;7.29;100.00
57801;BME280;43627;42.728;23.256;2023-04-04T04:04:37;93524.53;;;7.35;100.00
57801;BME280;43627;42.728;23.256;2023-04-04T04:07:04;93525.09;;;7.39;100.00
57801;BME280;43627;42.728;23.256;2023-04-04T04:09:31;93521.91;;;7.41;100.00
57801;BME280;43627;42.728;23.256;2023-04-04T04:11:57;93523.97;;;7.52;100.00
57801;BME280;43627;42.728;23.256;2023-04-04T04:14:24;93501.13;;;7.38;100.00
57801;BME280;43627;42.728;23.256;2023-04-04T04:16:51;93521.19;;;7.46;100.00
57801;BME280;43627;42.728;23.256;2023-04-04T04:19:17;93522.16;;;7.43;100.00
57801;BME280;43627;42.728;23.256;2023-04-04T04:21:44;93525.13;;;7.45;100.00
57801;BME280;43627;42.728;23.256;2023-04-04T04:24:11;93519.34;;;7.58;100.00
57801;BME280;43627;42.728;23.256;2023-04-04T04:26:37;93526.81;;;7.63;100.00
57801;BME280;43627;42.728;23.256;2023-04-04T04:29:04;93528.28;;;7.64;100.00
57801;BME280;43627;42.728;23.256;2023-04-04T04:31:32;93531.41;;;7.57;100.00
57801;BME280;43627;42.728;23.256;2023-04-04T04:33:59;93537.28;;;7.50;100.00
57801;BME280;43627;42.728;23.256;2023-04-04T04:36:26;93524.25;;;7.33;100.00
57801;BME280;43627;42.728;23.256;2023-04-04T04:38:53;93551.09;;;7.52;100.00
57801;BME280;43627;42.728;23.256;2023-04-04T04:41:19;93551.91;;;7.37;100.00
57801;BME280;43627;42.728;23.256;2023-04-04T04:43:47;93554.44;;;7.21;100.00
57801;BME280;43627;42.728;23.256;2023-04-04T04:46:14;93559.38;;;7.22;100.00
57801;BME280;43627;42.728;23.256;2023-04-04T04:48:41;93558.75;;;7.12;100.00
57801;BME280;43627;42.728;23.256;2023-04-04T04:51:07;93560.84;;;7.03;100.00
57801;BME280;43627;42.728;23.256;2023-04-04T04:53:34;93565.72;;;7.19;100.00
57801;BME280;43627;42.728;23.256;2023-04-04T04:56:01;93550.81;;;7.09;100.00
57801;BME280;43627;42.728;23.256;2023-04-04T04:58:28;93564.09;;;7.07;100.00
57801;BME280;43627;42.728;23.256;2023-04-04T05:00:55;93563.97;;;7.16;100.00
57801;BME280;43627;42.728;23.256;2023-04-04T05:03:24;93586.66;;;7.19;100.00
57801;BME280;43627;42.728;23.256;2023-04-04T05:05:51;93577.44;;;7.10;100.00
57801;BME280;43627;42.728;23.256;2023-04-04T05:08:18;93595.53;;;7.19;100.00
57801;BME280;43627;42.728;23.256;2023-04-04T05:10:45;93593.41;;;7.23;100.00
57801;BME280;43627;42.728;23.256;2023-04-04T05:13:12;93579.13;;;7.08;100.00
57801;BME280;43627;42.728;23.256;2023-04-04T05:15:39;93594.75;;;7.13;100.00
57801;BME280;43627;42.728;23.256;2023-04-04T05:18:06;93592.97;;;7.10;100.00
57801;BME280;43627;42.728;23.256;2023-04-04T05:20:34;93598.59;;;7.27;100.00
57801;BME280;43627;42.728;23.256;2023-04-04T05:23:01;93596.34;;;7.40;100.00
57801;BME280;43627;42.728;23.256;2023-04-04T05:25:27;93604.38;;;7.55;100.00
57801;BME280;43627;42.728;23.256;2023-04-04T05:27:54;93603.28;;;7.67;100.00
57801;BME280;43627;42.728;23.256;2023-04-04T05:30:24;93600.06;;;7.63;100.00
57801;BME280;43627;42.728;23.256;2023-04-04T05:32:50;93605.28;;;7.87;100.00
57801;BME280;43627;42.728;23.256;2023-04-04T05:35:18;93606.06;;;7.93;100.00
57801;BME280;43627;42.728;23.256;2023-04-04T05:37:44;93603.25;;;8.08;100.00
57801;BME280;43627;42.728;23.256;2023-04-04T05:40:11;93578.25;;;7.98;100.00
57801;BME280;43627;42.728;23.256;2023-04-04T05:42:38;93594.75;;;8.20;100.00
57801;BME280;43627;42.728;23.256;2023-04-04T05:45:05;93607.34;;;8.44;100.00
57801;BME280;43627;42.728;23.256;2023-04-04T05:47:32;93612.81;;;8.49;100.00
57801;BME280;43627;42.728;23.256;2023-04-04T05:49:58;93595.53;;;8.52;100.00
57801;BME280;43627;42.728;23.256;2023-04-04T05:52:26;93613.69;;;8.67;100.00
57801;BME280;43627;42.728;23.256;2023-04-04T05:54:53;93607.13;;;8.47;100.00
57801;BME280;43627;42.728;23.256;2023-04-04T05:57:20;93619.56;;;8.59;100.00
57801;BME280;43627;42.728;23.256;2023-04-04T05:59:48;93608.44;;;8.57;100.00
57801;BME280;43627;42.728;23.256;2023-04-04T06:02:15;93627.53;;;8.69;100.00
57801;BME280;43627;42.728;23.256;2023-04-04T06:04:42;93607.53;;;8.66;100.00
57801;BME280;43627;42.728;23.256;2023-04-04T06:07:10;93618.81;;;8.59;100.00
57801;BME280;43627;42.728;23.256;2023-04-04T06:09:37;93618.78;;;8.33;100.00
57801;BME280;43627;42.728;23.256;2023-04-04T06:12:05;93594.09;;;7.59;100.00
57801;BME280;43627;42.728;23.256;2023-04-04T06:14:32;93641.97;;;7.41;100.00
57801;BME280;43627;42.728;23.256;2023-04-04T06:16:59;93645.56;;;6.83;100.00
57801;BME280;43627;42.728;23.256;2023-04-04T06:19:25;93624.94;;;6.41;100.00
57801;BME280;43627;42.728;23.256;2023-04-04T06:21:52;93628.84;;;6.40;100.00
57801;BME280;43627;42.728;23.256;2023-04-04T06:24:19;93665.00;;;5.74;100.00
57801;BME280;43627;42.728;23.256;2023-04-04T06:26:45;93618.31;;;5.26;100.00
57801;BME280;43627;42.728;23.256;2023-04-04T06:29:16;93663.88;;;5.42;100.00
57801;BME280;43627;42.728;23.256;2023-04-04T06:31:43;93639.94;;;5.02;100.00
57801;BME280;43627;42.728;23.256;2023-04-04T06:34:10;93660.88;;;4.83;100.00
57801;BME280;43627;42.728;23.256;2023-04-04T06:36:37;93672.50;;;4.99;100.00
57801;BME280;43627;42.728;23.256;2023-04-04T06:39:04;93679.06;;;4.65;100.00
57801;BME280;43627;42.728;23.256;2023-04-04T06:41:31;93693.19;;;4.59;100.00
57801;BME280;43627;42.728;23.256;2023-04-04T06:43:58;93681.53;;;4.26;100.00
57801;BME280;43627;42.728;23.256;2023-04-04T06:46:25;93655.47;;;4.05;100.00
57801;BME280;43627;42.728;23.256;2023-04-04T06:48:52;93713.31;;;4.40;100.00
57801;BME280;43627;42.728;23.256;2023-04-04T06:51:20;93708.50;;;4.26;100.00
57801;BME280;43627;42.728;23.256;2023-04-04T06:53:47;93710.91;;;4.42;100.00
57801;BME280;43627;42.728;23.256;2023-04-04T06:56:14;93692.78;;;4.24;100.00
57801;BME280;43627;42.728;23.256;2023-04-04T06:58:41;93707.16;;;4.40;100.00
57801;BME280;43627;42.728;23.256;2023-04-04T07:01:08;93697.44;;;4.15;100.00
57801;BME280;43627;42.728;23.256;2023-04-04T07:03:35;93720.19;;;4.41;100.00
57801;BME280;43627;42.728;23.256;2023-04-04T07:06:02;93651.59;;;3.60;100.00
57801;BME280;43627;42.728;23.256;2023-04-04T07:08:30;93735.03;;;3.82;100.00
57801;BME280;43627;42.728;23.256;2023-04-04T07:11:02;93747.91;;;3.87;100.00
57801;BME280;43627;42.728;23.256;2023-04-04T07:13:29;93750.47;;;3.72;100.00
57801;BME280;43627;42.728;23.256;2023-04-04T07:15:55;93752.53;;;3.77;100.00
57801;BME280;43627;42.728;23.256;2023-04-04T07:18:22;93774.44;;;3.79;100.00
57801;BME280;43627;42.728;23.256;2023-04-04T07:20:49;93761.22;;;3.63;100.00
57801;BME280;43627;42.728;23.256;2023-04-04T07:23:16;93770.94;;;3.69;100.00
57801;BME280;43627;42.728;23.256;2023-04-04T07:25:42;93794.91;;;3.67;100.00
57801;BME280;43627;42.728;23.256;2023-04-04T07:28:09;93802.22;;;3.58;100.00
57801;BME280;43627;42.728;23.256;2023-04-04T07:30:39;93797.88;;;3.51;100.00
57801;BME280;43627;42.728;23.256;2023-04-04T07:33:06;93820.97;;;3.30;100.00
57801;BME280;43627;42.728;23.256;2023-04-04T07:35:33;93785.88;;;3.12;100.00
57801;BME280;43627;42.728;23.256;2023-04-04T07:38:00;93822.13;;;3.20;100.00
57801;BME280;43627;42.728;23.256;2023-04-04T07:40:28;93834.63;;;3.36;100.00
57801;BME280;43627;42.728;23.256;2023-04-04T07:42:55;93807.41;;;3.12;100.00
57801;BME280;43627;42.728;23.256;2023-04-04T07:45:21;93842.41;;;3.34;100.00
57801;BME280;43627;42.728;23.256;2023-04-04T07:47:48;93837.53;;;3.20;100.00
57801;BME280;43627;42.728;23.256;2023-04-04T07:50:15;93845.81;;;3.25;100.00
57801;BME280;43627;42.728;23.256;2023-04-04T07:52:50;93771.00;;;2.67;100.00
57801;BME280;43627;42.728;23.256;2023-04-04T07:55:17;93828.66;;;3.10;100.00
57801;BME280;43627;42.728;23.256;2023-04-04T07:57:45;93850.31;;;3.28;100.00
57801;BME280;43627;42.728;23.256;2023-04-04T08:00:13;93835.53;;;3.33;100.00
57801;BME280;43627;42.728;23.256;2023-04-04T08:02:41;93773.16;;;2.81;100.00
57801;BME280;43627;42.728;23.256;2023-04-04T08:05:08;93839.72;;;3.34;100.00
57801;BME280;43627;42.728;23.256;2023-04-04T08:07:35;93821.53;;;3.16;100.00
57801;BME280;43627;42.728;23.256;2023-04-04T08:10:02;93802.88;;;3.00;100.00
57801;BME280;43627;42.728;23.256;2023-04-04T08:12:29;93855.59;;;3.32;100.00
57801;BME280;43627;42.728;23.256;2023-04-04T08:14:56;93842.81;;;3.01;100.00
57801;BME280;43627;42.728;23.256;2023-04-04T08:17:22;93855.59;;;3.10;100.00
57801;BME280;43627;42.728;23.256;2023-04-04T08:19:50;93865.50;;;3.13;100.00
57801;BME280;43627;42.728;23.256;2023-04-04T08:22:17;93876.63;;;3.24;100.00
57801;BME280;43627;42.728;23.256;2023-04-04T08:24:44;93852.28;;;3.06;100.00
57801;BME280;43627;42.728;23.256;2023-04-04T08:27:11;93883.16;;;3.14;100.00
57801;BME280;43627;42.728;23.256;2023-04-04T08:29:40;93870.88;;;2.91;100.00
57801;BME280;43627;42.728;23.256;2023-04-04T08:32:07;93911.84;;;3.08;100.00
57801;BME280;43627;42.728;23.256;2023-04-04T08:34:35;93911.34;;;3.00;100.00
57801;BME280;43627;42.728;23.256;2023-04-04T08:37:01;93901.63;;;3.03;100.00
57801;BME280;43627;42.728;23.256;2023-04-04T08:39:28;93895.00;;;2.95;100.00
57801;BME280;43627;42.728;23.256;2023-04-04T08:42:02;93899.00;;;2.90;100.00
57801;BME280;43627;42.728;23.256;2023-04-04T08:44:33;93891.44;;;2.98;100.00
57801;BME280;43627;42.728;23.256;2023-04-04T08:47:04;93903.56;;;3.02;100.00
57801;BME280;43627;42.728;23.256;2023-04-04T08:49:36;93899.63;;;3.16;100.00
57801;BME280;43627;42.728;23.256;2023-04-04T08:52:04;93898.75;;;2.97;100.00
57801;BME280;43627;42.728;23.256;2023-04-04T08:54:33;93910.78;;;3.05;100.00
57801;BME280;43627;42.728;23.256;2023-04-04T08:57:01;93869.22;;;2.84;100.00
57801;BME280;43627;42.728;23.256;2023-04-04T08:59:29;93921.47;;;3.18;100.00
57801;BME280;43627;42.728;23.256;2023-04-04T09:04:32;93920.22;;;3.10;100.00
57801;BME280;43627;42.728;23.256;2023-04-04T09:07:00;93930.69;;;3.08;100.00
57801;BME280;43627;42.728;23.256;2023-04-04T09:09:31;93927.63;;;2.97;100.00
57801;BME280;43627;42.728;23.256;2023-04-04T09:12:02;93912.09;;;3.01;100.00
57801;BME280;43627;42.728;23.256;2023-04-04T09:14:30;93916.22;;;3.14;100.00
57801;BME280;43627;42.728;23.256;2023-04-04T09:16:57;93917.91;;;3.21;100.00
57801;BME280;43627;42.728;23.256;2023-04-04T09:19:24;93936.81;;;3.30;100.00
57801;BME280;43627;42.728;23.256;2023-04-04T09:21:51;93923.63;;;3.23;100.00
57801;BME280;43627;42.728;23.256;2023-04-04T09:24:18;93924.63;;;3.17;100.00
57801;BME280;43627;42.728;23.256;2023-04-04T09:26:49;93921.47;;;3.18;100.00
57801;BME280;43627;42.728;23.256;2023-04-04T09:29:18;93926.28;;;3.01;100.00
57801;BME280;43627;42.728;23.256;2023-04-04T09:31:46;93924.88;;;2.88;100.00
57801;BME280;43627;42.728;23.256;2023-04-04T09:34:16;93927.56;;;2.88;100.00
57801;BME280;43627;42.728;23.256;2023-04-04T09:36:44;93931.94;;;2.94;100.00
57801;BME280;43627;42.728;23.256;2023-04-04T09:39:12;93923.66;;;2.89;100.00
57801;BME280;43627;42.728;23.256;2023-04-04T09:41:43;93865.47;;;2.47;100.00
57801;BME280;43627;42.728;23.256;2023-04-04T09:44:11;93955.81;;;3.05;100.00
57801;BME280;43627;42.728;23.256;2023-04-04T09:46:38;93947.66;;;2.96;100.00
57801;BME280;43627;42.728;23.256;2023-04-04T09:49:09;93914.97;;;2.84;100.00
57801;BME280;43627;42.728;23.256;2023-04-04T09:51:39;93956.44;;;3.09;100.00
57801;BME280;43627;42.728;23.256;2023-04-04T09:54:10;93952.56;;;3.10;100.00
57801;BME280;43627;42.728;23.256;2023-04-04T09:56:55;93926.75;;;3.00;100.00
57801;BME280;43627;42.728;23.256;2023-04-04T09:59:23;93936.25;;;2.92;100.00
57801;BME280;43627;42.728;23.256;2023-04-04T10:01:50;93932.81;;;2.91;100.00
57801;BME280;43627;42.728;23.256;2023-04-04T10:04:18;93942.97;;;3.09;100.00
57801;BME280;43627;42.728;23.256;2023-04-04T10:06:46;93934.81;;;3.00;100.00
57801;BME280;43627;42.728;23.256;2023-04-04T10:09:14;93936.50;;;2.84;100.00
57801;BME280;43627;42.728;23.256;2023-04-04T10:11:41;93952.53;;;2.88;100.00
57801;BME280;43627;42.728;23.256;2023-04-04T10:14:08;93923.59;;;2.79;100.00
57801;BME280;43627;42.728;23.256;2023-04-04T10:16:35;93966.97;;;2.81;100.00
57801;BME280;43627;42.728;23.256;2023-04-04T10:19:04;93968.94;;;3.03;100.00
57801;BME280;43627;42.728;23.256;2023-04-04T10:21:33;93967.13;;;3.22;100.00
57801;BME280;43627;42.728;23.256;2023-04-04T10:24:00;93959.81;;;3.22;100.00
57801;BME280;43627;42.728;23.256;2023-04-04T10:26:34;93975.88;;;3.26;100.00
57801;BME280;43627;42.728;23.256;2023-04-04T10:29:02;93966.16;;;3.06;100.00
57801;BME280;43627;42.728;23.256;2023-04-04T10:31:32;93968.84;;;3.06;100.00
57801;BME280;43627;42.728;23.256;2023-04-04T10:34:23;93980.84;;;2.93;100.00
57801;BME280;43627;42.728;23.256;2023-04-04T10:36:53;93997.50;;;3.00;100.00
57801;BME280;43627;42.728;23.256;2023-04-04T10:42:06;93988.59;;;3.25;100.00
57801;BME280;43627;42.728;23.256;2023-04-04T10:44:39;93995.91;;;3.25;100.00
57801;BME280;43627;42.728;23.256;2023-04-04T10:47:08;93997.94;;;3.33;100.00
57801;BME280;43627;42.728;23.256;2023-04-04T10:49:43;94005.75;;;3.40;100.00
57801;BME280;43627;42.728;23.256;2023-04-04T10:52:16;93990.72;;;3.30;100.00
57801;BME280;43627;42.728;23.256;2023-04-04T10:54:44;93970.47;;;3.04;100.00
57801;BME280;43627;42.728;23.256;2023-04-04T10:57:12;93987.00;;;3.15;100.00
57801;BME280;43627;42.728;23.256;2023-04-04T11:00:08;94003.66;;;3.01;100.00
57801;BME280;43627;42.728;23.256;2023-04-04T11:02:42;94016.34;;;3.13;100.00
57801;BME280;43627;42.728;23.256;2023-04-04T11:07:45;94007.28;;;3.07;100.00
57801;BME280;43627;42.728;23.256;2023-04-04T11:10:46;94002.63;;;2.85;100.00
57801;BME280;43627;42.728;23.256;2023-04-04T11:13:17;94010.44;;;2.93;100.00
57801;BME280;43627;42.728;23.256;2023-04-04T11:16:00;94013.03;;;2.96;100.00
57801;BME280;43627;42.728;23.256;2023-04-04T11:21:05;94015.81;;;3.05;100.00
57801;BME280;43627;42.728;23.256;2023-04-04T11:29:00;94036.28;;;3.03;100.00
57801;BME280;43627;42.728;23.256;2023-04-04T11:31:28;94037.91;;;3.00;100.00
57801;BME280;43627;42.728;23.256;2023-04-04T11:34:03;94045.13;;;3.03;100.00
57801;BME280;43627;42.728;23.256;2023-04-04T11:44:26;94045.44;;;2.93;100.00
57801;BME280;43627;42.728;23.256;2023-04-04T11:49:35;94039.66;;;2.94;100.00
57801;BME280;43627;42.728;23.256;2023-04-04T11:52:04;94031.06;;;2.74;100.00
57801;BME280;43627;42.728;23.256;2023-04-04T11:54:32;94011.59;;;2.70;100.00
57801;BME280;43627;42.728;23.256;2023-04-04T11:56:59;93991.75;;;2.29;100.00
57801;BME280;43627;42.728;23.256;2023-04-04T11:59:26;94052.28;;;2.84;100.00
57801;BME280;43627;42.728;23.256;2023-04-04T12:01:53;94050.66;;;2.87;100.00
57801;BME280;43627;42.728;23.256;2023-04-04T12:04:21;94032.03;;;2.80;100.00
57801;BME280;43627;42.728;23.256;2023-04-04T12:06:50;94039.22;;;2.83;100.00
57801;BME280;43627;42.728;23.256;2023-04-04T12:09:17;94040.44;;;2.69;100.00
57801;BME280;43627;42.728;23.256;2023-04-04T12:11:46;94044.22;;;2.59;100.00
57801;BME280;43627;42.728;23.256;2023-04-04T12:14:20;93995.72;;;2.12;100.00
57801;BME280;43627;42.728;23.256;2023-04-04T12:16:51;94051.75;;;2.51;100.00
57801;BME280;43627;42.728;23.256;2023-04-04T12:19:21;94030.88;;;2.43;100.00
57801;BME280;43627;42.728;23.256;2023-04-04T12:21:49;94044.00;;;2.53;100.00
57801;BME280;43627;42.728;23.256;2023-04-04T12:24:17;94037.25;;;2.49;100.00
57801;BME280;43627;42.728;23.256;2023-04-04T12:26:49;94049.94;;;2.61;100.00
57801;BME280;43627;42.728;23.256;2023-04-04T12:29:19;94039.47;;;2.63;100.00
57801;BME280;43627;42.728;23.256;2023-04-04T12:31:48;94042.72;;;2.58;100.00
57801;BME280;43627;42.728;23.256;2023-04-04T12:34:24;94048.44;;;2.60;100.00
57801;BME280;43627;42.728;23.256;2023-04-04T12:36:51;94052.59;;;2.74;100.00
57801;BME280;43627;42.728;23.256;2023-04-04T12:39:19;94065.53;;;2.79;100.00
57801;BME280;43627;42.728;23.256;2023-04-04T12:42:07;94055.53;;;2.67;100.00
57801;BME280;43627;42.728;23.256;2023-04-04T12:44:36;94054.03;;;2.66;100.00
57801;BME280;43627;42.728;23.256;2023-04-04T12:47:08;94060.69;;;2.61;100.00
57801;BME280;43627;42.728;23.256;2023-04-04T12:49:41;94049.81;;;2.52;100.00
57801;BME280;43627;42.728;23.256;2023-04-04T12:52:20;94015.31;;;2.12;100.00
57801;BME280;43627;42.728;23.256;2023-04-04T12:54:48;94074.69;;;2.56;100.00
57801;BME280;43627;42.728;23.256;2023-04-04T12:57:33;94068.56;;;2.43;100.00
57801;BME280;43627;42.728;23.256;2023-04-04T13:00:00;94069.84;;;2.51;100.00
57801;BME280;43627;42.728;23.256;2023-04-04T13:02:29;94070.25;;;2.37;100.00
57801;BME280;43627;42.728;23.256;2023-04-04T13:04:57;94068.31;;;2.24;100.00
57801;BME280;43627;42.728;23.256;2023-04-04T13:07:26;94021.50;;;1.96;100.00
57801;BME280;43627;42.728;23.256;2023-04-04T13:10:01;94079.63;;;2.19;100.00
57801;BME280;43627;42.728;23.256;2023-04-04T13:15:48;94078.66;;;2.13;100.00
57801;BME280;43627;42.728;23.256;2023-04-04T13:18:20;94095.09;;;2.03;100.00
57801;BME280;43627;42.728;23.256;2023-04-04T13:20:48;94098.53;;;2.03;100.00
57801;BME280;43627;42.728;23.256;2023-04-04T13:23:15;94065.47;;;1.77;100.00
57801;BME280;43627;42.728;23.256;2023-04-04T13:25:42;94082.31;;;1.65;100.00
57801;BME280;43627;42.728;23.256;2023-04-04T13:28:09;94086.94;;;1.64;100.00